K.pluto — 3EYQ3 — position and weather

sailwx.info

Track history (hours):
 
Tides and Currents Weather Stations Pressure Air Temp Water Temp Dewpoint Dewpoint Depression Visibility Wind Speed Wind Dir Waves Ship Positions

K.pluto

Last reported at 2015-Jun-25 01:14 UTC. Time now 2015-Jun-30 12:44 UTC.
Position N 01°28' E 103°51'.

Length 170 m; draft 5.5 m.

Type: Cargo ship. MMSI: 373504000.

Date/timePositionNaut miles runAvg speedWind from/ knotsBaromVisibWave heightAir tempDewpointWater temp
2015-Jun-25 01:14N 01°28' E 103°51'6 6.4
2015-Jun-25 00:17N 01°25' E 103°56'5 6.8
2015-Jun-24 23:34N 01°24' E 104°00'6 5.8
2015-Jun-24 22:33N 01°19' E 104°04'0 0.4
2015-Jun-24 21:33N 01°19' E 104°05'0 0.1
2015-Jun-24 20:30N 01°19' E 104°04'0 0.1
2015-Jun-24 19:33N 01°19' E 104°04'1 0.5
2015-Jun-24 18:33N 01°19' E 104°05'6 4.3
2015-Jun-24 17:14N 01°17' E 104°10'4 6.5
2015-Jun-24 16:33N 01°18' E 104°15'  
Track history (hours):
 
Tides and Currents Weather Stations Pressure Air Temp Water Temp Dewpoint Dewpoint Depression Visibility Wind Speed Wind Dir Waves Ship Positions

K.pluto

Last reported at 2015-Jun-25 01:14 UTC. Time now 2015-Jun-30 12:44 UTC.
Position N 01°28' E 103°51'.

Length 170 m; draft 5.5 m.

Type: Cargo ship. MMSI: 373504000.

Date/timePositionNaut miles runAvg speedWind from/ knotsBaromVisibWave heightAir tempDewpointWater temp
2015-Jun-25 01:14N 01°28' E 103°51'6 6.4
2015-Jun-25 00:17N 01°25' E 103°56'5 6.8
2015-Jun-24 23:34N 01°24' E 104°00'6 5.8
2015-Jun-24 22:33N 01°19' E 104°04'0 0.4
2015-Jun-24 21:33N 01°19' E 104°05'0 0.1
2015-Jun-24 20:30N 01°19' E 104°04'0 0.1
2015-Jun-24 19:33N 01°19' E 104°04'1 0.5
2015-Jun-24 18:33N 01°19' E 104°05'6 4.3
2015-Jun-24 17:14N 01°17' E 104°10'4 6.5
2015-Jun-24 16:33N 01°18' E 104°15'  

Dump ship's entire track history